Pekin Heights, Illinois
Current Conditions -  °F | °C
As of 11:54 PM on Monday 26 Jan 2015 (Local Time) from KPIA Reporting Station
Haze Haze  
Wind Chill: 32°   Ceiling: 7000
Heat Index: 32°   Visibility: 6mi
Dew Point: 29°   Wind: 3mph
Humidity: 88%   Direction: 300°WNW
Pressure: 29.9"   Gusts: NA
Location:  40.5452°N, 89.6011°W
Report Text: KPIA 270554Z 30003KT 6SM BR SCT017 OVC070 00/M02 A2990 RMK AO2 SLP133 T00001017 10006 21006 400061067 53004
Loading
Personal Weather Stations






























Interactive Weather Map New forecast layout! Learn more

10-Day Weather Forecast

Advertisements
Track Severe Weather on mobile